^^
Station Historical Data
Daily Summary for Nil La, TWC- Units:  Both    English   Metric
« Previous Day
Next Day »
Daily Weekly Monthly Yearly Custom
  High: Low: Average:
Temperature: TemperatureF °F /  -17.8 °C 66.6 °F /  19.2 °C 75.5 °F /  24.2 °C
Dew Point: DewpointF °F /  -17.8 °C 46.9 °F /  8.3 °C 51.8 °F /  11 °C
Humidity: Humidity% 29% 45%
Wind Speed: WindSpeedMPHmph /  0km/h - -21.1mph /  -34km/h
Wind Gust: WindSpeedGustMPHmph /  0km/h - -
Wind- -
Pressure: PressureIn in /  0 hPa 29.43 in /  996.5 hPa -
Precipitation: 0.00 in /  0 mm    
Historical Graphs
 
 
Tabular Data for Nil La, TWC-
Time Temperature Dew Point Pressure Wind Wind Speed Wind Gust Humidity Rainfall Rate (Hourly) solar Conditions
TemperatureF °F /  -17.8 °C DewpointF °F /  -17.8 °C PressureInin /  0hPa Calm     Humidity% HourlyPrecipInin /  0mm SoftwareType W/m2 Conditions
08:05 66.6 °F /  19.2 °C 56.1 °F /  13.4 °C 29.50in /  998.9hPa NNE 6.0mph /  9.7km/h 10.0mph /  16.1km/h 69% 0.00in /  0mm meteobridge W/m2
08:11 66.6 °F /  19.2 °C 56.1 °F /  13.4 °C 29.50in /  998.9hPa NE 4.0mph /  6.4km/h 10.0mph /  16.1km/h 69% 0.00in /  0mm meteobridge W/m2
08:17 66.7 °F /  19.3 °C 56.7 °F /  13.7 °C 29.51in /  999.2hPa NE 6.0mph /  9.7km/h 7.0mph /  11.3km/h 70% 0.00in /  0mm meteobridge W/m2
08:24 67.1 °F /  19.5 °C 56.7 °F /  13.7 °C 29.51in /  999.2hPa NE 4.9mph /  7.9km/h 9.0mph /  14.5km/h 69% 0.00in /  0mm meteobridge W/m2
08:30 67.1 °F /  19.5 °C 57.0 °F /  13.9 °C 29.51in /  999.2hPa NE 2.0mph /  3.2km/h 6.0mph /  9.7km/h 70% 0.00in /  0mm meteobridge W/m2
08:36 67.5 °F /  19.7 °C 57.4 °F /  14.1 °C 29.51in /  999.2hPa ENE 4.9mph /  7.9km/h 7.0mph /  11.3km/h 70% 0.00in /  0mm meteobridge W/m2
08:42 67.8 °F /  19.9 °C 57.2 °F /  14 °C 29.51in /  999.2hPa NNE 2.9mph /  4.7km/h 9.0mph /  14.5km/h 69% 0.00in /  0mm meteobridge W/m2
08:48 68.5 °F /  20.3 °C 57.6 °F /  14.2 °C 29.51in /  999.2hPa NE 6.9mph /  11.1km/h 7.0mph /  11.3km/h 68% 0.00in /  0mm meteobridge W/m2
08:54 68.7 °F /  20.4 °C 57.4 °F /  14.1 °C 29.52in /  999.5hPa NE 2.9mph /  4.7km/h 7.0mph /  11.3km/h 67% 0.00in /  0mm meteobridge W/m2
09:00 69.3 °F /  20.7 °C 57.4 °F /  14.1 °C 29.52in /  999.5hPa ENE 2.0mph /  3.2km/h 7.0mph /  11.3km/h 66% 0.00in /  0mm meteobridge W/m2
09:06 70.2 °F /  21.2 °C 57.9 °F /  14.4 °C 29.52in /  999.5hPa NE 4.0mph /  6.4km/h 4.0mph /  6.4km/h 65% 0.00in /  0mm meteobridge W/m2
09:12 70.9 °F /  21.6 °C 58.1 °F /  14.5 °C 29.52in /  999.5hPa Calm   2.0mph /  3.2km/h 64% 0.00in /  0mm meteobridge W/m2
09:18 71.8 °F /  22.1 °C 58.1 °F /  14.5 °C 29.52in /  999.5hPa NE 2.0mph /  3.2km/h 2.0mph /  3.2km/h 62% 0.00in /  0mm meteobridge W/m2
09:25 72.1 °F /  22.3 °C 57.6 °F /  14.2 °C 29.52in /  999.5hPa NNE 4.0mph /  6.4km/h 5.0mph /  8km/h 60% 0.00in /  0mm meteobridge W/m2
09:31 71.8 °F /  22.1 °C 57.2 °F /  14 °C 29.52in /  999.5hPa NE 2.0mph /  3.2km/h 4.0mph /  6.4km/h 60% 0.00in /  0mm meteobridge W/m2
09:37 72.3 °F /  22.4 °C 56.7 °F /  13.7 °C 29.52in /  999.5hPa NNE 4.0mph /  6.4km/h 6.0mph /  9.7km/h 58% 0.00in /  0mm meteobridge W/m2
09:43 73.2 °F /  22.9 °C 56.7 °F /  13.7 °C 29.52in /  999.5hPa North 2.0mph /  3.2km/h 6.0mph /  9.7km/h 56% 0.00in /  0mm meteobridge W/m2
09:49 73.6 °F /  23.1 °C 55.9 °F /  13.3 °C 29.52in /  999.5hPa NNE 0.9mph /  1.4km/h 5.0mph /  8km/h 54% 0.00in /  0mm meteobridge W/m2
09:55 74.1 °F /  23.4 °C 55.9 °F /  13.3 °C 29.51in /  999.2hPa NNE 2.9mph /  4.7km/h 5.0mph /  8km/h 53% 0.00in /  0mm meteobridge W/m2
10:01 74.5 °F /  23.6 °C 56.3 °F /  13.5 °C 29.52in /  999.5hPa ENE 2.9mph /  4.7km/h 3.0mph /  4.8km/h 53% 0.00in /  0mm meteobridge W/m2
10:07 75.6 °F /  24.2 °C 54.5 °F /  12.5 °C 29.52in /  999.5hPa NNE 2.9mph /  4.7km/h 9.0mph /  14.5km/h 48% 0.00in /  0mm meteobridge W/m2
10:13 75.9 °F /  24.4 °C 53.6 °F /  12 °C 29.52in /  999.5hPa SW 2.0mph /  3.2km/h 6.0mph /  9.7km/h 46% 0.00in /  0mm meteobridge W/m2
10:19 76.3 °F /  24.6 °C 54.0 °F /  12.2 °C 29.51in /  999.2hPa NE 6.0mph /  9.7km/h 6.0mph /  9.7km/h 46% 0.00in /  0mm meteobridge W/m2
10:25 75.9 °F /  24.4 °C 54.9 °F /  12.7 °C 29.51in /  999.2hPa NE 4.9mph /  7.9km/h 5.0mph /  8km/h 48% 0.00in /  0mm meteobridge W/m2
10:31 74.1 °F /  23.4 °C 53.8 °F /  12.1 °C 29.51in /  999.2hPa North 2.9mph /  4.7km/h 4.0mph /  6.4km/h 49% 0.00in /  0mm meteobridge W/m2
10:52 77.5 °F /  25.3 °C 50.5 °F /  10.3 °C 29.51in /  999.2hPa East 4.0mph /  6.4km/h 9.0mph /  14.5km/h 39% 0.00in /  0mm meteobridge W/m2
10:58 78.6 °F /  25.9 °C 50.2 °F /  10.1 °C 29.51in /  999.2hPa SSW 2.9mph /  4.7km/h 4.0mph /  6.4km/h 37% 0.00in /  0mm meteobridge W/m2
11:04 78.4 °F /  25.8 °C 50.7 °F /  10.4 °C 29.51in /  999.2hPa SE 4.0mph /  6.4km/h 7.0mph /  11.3km/h 38% 0.00in /  0mm meteobridge W/m2
11:13 80.1 °F /  26.7 °C 50.7 °F /  10.4 °C 29.51in /  999.2hPa NNE 4.9mph /  7.9km/h 6.0mph /  9.7km/h 36% 0.00in /  0mm meteobridge W/m2
11:19 79.3 °F /  26.3 °C 49.3 °F /  9.6 °C 29.51in /  999.2hPa North 4.9mph /  7.9km/h 9.0mph /  14.5km/h 35% 0.00in /  0mm meteobridge W/m2
11:25 78.6 °F /  25.9 °C 50.9 °F /  10.5 °C 29.50in /  998.9hPa SW 0.9mph /  1.4km/h 4.0mph /  6.4km/h 38% 0.00in /  0mm meteobridge W/m2
11:31 80.1 °F /  26.7 °C 52.9 °F /  11.6 °C 29.50in /  998.9hPa SSE 4.0mph /  6.4km/h 5.0mph /  8km/h 39% 0.00in /  0mm meteobridge W/m2
11:37 80.1 °F /  26.7 °C 50.7 °F /  10.4 °C 29.50in /  998.9hPa East 8.9mph /  14.3km/h 12.0mph /  19.3km/h 36% 0.00in /  0mm meteobridge W/m2
11:43 80.2 °F /  26.8 °C 50.9 °F /  10.5 °C 29.50in /  998.9hPa NNW 4.0mph /  6.4km/h 8.0mph /  12.9km/h 36% 0.00in /  0mm meteobridge W/m2
11:49 80.2 °F /  26.8 °C 50.2 °F /  10.1 °C 29.50in /  998.9hPa SSW 4.0mph /  6.4km/h 6.0mph /  9.7km/h 35% 0.00in /  0mm meteobridge W/m2
11:55 79.9 °F /  26.6 °C 50.5 °F /  10.3 °C 29.49in /  998.5hPa Calm   6.0mph /  9.7km/h 36% 0.00in /  0mm meteobridge W/m2
12:01 80.6 °F /  27 °C 50.4 °F /  10.2 °C 29.50in /  998.9hPa NNW 8.9mph /  14.3km/h 15.0mph /  24.1km/h 35% 0.00in /  0mm meteobridge W/m2
12:07 79.9 °F /  26.6 °C 48.9 °F /  9.4 °C 29.50in /  998.9hPa NNE 4.0mph /  6.4km/h 4.0mph /  6.4km/h 34% 0.00in /  0mm meteobridge W/m2
12:14 80.2 °F /  26.8 °C 49.3 °F /  9.6 °C 29.49in /  998.5hPa North 4.9mph /  7.9km/h 12.0mph /  19.3km/h 34% 0.00in /  0mm meteobridge W/m2
12:20 80.4 °F /  26.9 °C 48.7 °F /  9.3 °C 29.49in /  998.5hPa Calm   5.0mph /  8km/h 33% 0.00in /  0mm meteobridge W/m2
12:26 80.8 °F /  27.1 °C 48.9 °F /  9.4 °C 29.49in /  998.5hPa NNW 2.0mph /  3.2km/h 10.0mph /  16.1km/h 33% 0.00in /  0mm meteobridge W/m2
12:32 81.7 °F /  27.6 °C 48.9 °F /  9.4 °C 29.49in /  998.5hPa North 2.9mph /  4.7km/h 9.0mph /  14.5km/h 32% 0.00in /  0mm meteobridge W/m2
12:38 81.7 °F /  27.6 °C 48.9 °F /  9.4 °C 29.49in /  998.5hPa NNW 6.9mph /  11.1km/h 12.0mph /  19.3km/h 32% 0.00in /  0mm meteobridge W/m2
12:44 81.0 °F /  27.2 °C 49.1 °F /  9.5 °C 29.48in /  998.2hPa North 14.1mph /  22.7km/h 19.0mph /  30.6km/h 33% 0.00in /  0mm meteobridge W/m2
12:50 81.3 °F /  27.4 °C 48.6 °F /  9.2 °C 29.49in /  998.5hPa North 4.0mph /  6.4km/h 12.0mph /  19.3km/h 32% 0.00in /  0mm meteobridge W/m2
12:56 81.3 °F /  27.4 °C 47.8 °F /  8.8 °C 29.49in /  998.5hPa NNE 4.9mph /  7.9km/h 13.0mph /  20.9km/h 31% 0.00in /  0mm meteobridge W/m2
13:02 81.7 °F /  27.6 °C 48.0 °F /  8.9 °C 29.49in /  998.5hPa NNE 6.0mph /  9.7km/h 11.0mph /  17.7km/h 31% 0.00in /  0mm meteobridge W/m2
13:09 82.4 °F /  28 °C 47.8 °F /  8.8 °C 29.48in /  998.2hPa Calm   8.0mph /  12.9km/h 30% 0.00in /  0mm meteobridge W/m2
13:15 83.1 °F /  28.4 °C 50.2 °F /  10.1 °C 29.48in /  998.2hPa SE 0.9mph /  1.4km/h 3.0mph /  4.8km/h 32% 0.00in /  0mm meteobridge W/m2
13:21 83.7 °F /  28.7 °C 48.9 °F /  9.4 °C 29.47in /  997.9hPa SSE 2.9mph /  4.7km/h 4.0mph /  6.4km/h 30% 0.00in /  0mm meteobridge W/m2
13:27 84.0 °F /  28.9 °C 49.3 °F /  9.6 °C 29.47in /  997.9hPa NNW 8.9mph /  14.3km/h 16.0mph /  25.7km/h 30% 0.00in /  0mm meteobridge W/m2
13:33 81.3 °F /  27.4 °C 47.8 °F /  8.8 °C 29.46in /  997.5hPa North 4.9mph /  7.9km/h 7.0mph /  11.3km/h 31% 0.00in /  0mm meteobridge W/m2
13:39 80.4 °F /  26.9 °C 47.8 °F /  8.8 °C 29.46in /  997.5hPa NNW 11.0mph /  17.7km/h 11.0mph /  17.7km/h 32% 0.00in /  0mm meteobridge W/m2
13:45 81.7 °F /  27.6 °C 48.9 °F /  9.4 °C 29.46in /  997.5hPa SSE 2.0mph /  3.2km/h 10.0mph /  16.1km/h 32% 0.00in /  0mm meteobridge W/m2
13:52 82.6 °F /  28.1 °C 49.8 °F /  9.9 °C 29.47in /  997.9hPa North 8.1mph /  13km/h 9.0mph /  14.5km/h 32% 0.00in /  0mm meteobridge W/m2
13:58 82.9 °F /  28.3 °C 50.0 °F /  10 °C 29.46in /  997.5hPa SSW 2.0mph /  3.2km/h 5.0mph /  8km/h 32% 0.00in /  0mm meteobridge W/m2
14:04 84.2 °F /  29 °C 49.5 °F /  9.7 °C 29.46in /  997.5hPa Calm   3.0mph /  4.8km/h 30% 0.00in /  0mm meteobridge W/m2
14:10 85.3 °F /  29.6 °C 50.4 °F /  10.2 °C 29.45in /  997.2hPa SSW 2.9mph /  4.7km/h 7.0mph /  11.3km/h 30% 0.00in /  0mm meteobridge W/m2
14:17 84.2 °F /  29 °C 49.5 °F /  9.7 °C 29.45in /  997.2hPa SSE 4.0mph /  6.4km/h 14.0mph /  22.5km/h 30% 0.00in /  0mm meteobridge W/m2
14:23 82.2 °F /  27.9 °C 47.7 °F /  8.7 °C 29.45in /  997.2hPa Calm   5.0mph /  8km/h 30% 0.00in /  0mm meteobridge W/m2
14:29 82.2 °F /  27.9 °C 48.6 °F /  9.2 °C 29.45in /  997.2hPa SSW 0.9mph /  1.4km/h 4.0mph /  6.4km/h 31% 0.00in /  0mm meteobridge W/m2
14:35 82.2 °F /  27.9 °C 50.2 °F /  10.1 °C 29.45in /  997.2hPa SSE 2.0mph /  3.2km/h 7.0mph /  11.3km/h 33% 0.00in /  0mm meteobridge W/m2
14:41 83.1 °F /  28.4 °C 50.2 °F /  10.1 °C 29.44in /  996.8hPa SSE 6.9mph /  11.1km/h 14.0mph /  22.5km/h 32% 0.00in /  0mm meteobridge W/m2
14:47 83.5 °F /  28.6 °C 48.7 °F /  9.3 °C 29.44in /  996.8hPa NNW 10.1mph /  16.3km/h 11.0mph /  17.7km/h 30% 0.00in /  0mm meteobridge W/m2
14:53 82.9 °F /  28.3 °C 48.4 °F /  9.1 °C 29.44in /  996.8hPa Calm   5.0mph /  8km/h 30% 0.00in /  0mm meteobridge W/m2
14:59 84.2 °F /  29 °C 49.5 °F /  9.7 °C 29.44in /  996.8hPa SSW 4.9mph /  7.9km/h 6.0mph /  9.7km/h 30% 0.00in /  0mm meteobridge W/m2
15:05 84.6 °F /  29.2 °C 48.7 °F /  9.3 °C 29.44in /  996.8hPa NW 0.9mph /  1.4km/h 6.0mph /  9.7km/h 29% 0.00in /  0mm meteobridge W/m2
15:11 84.0 °F /  28.9 °C 48.4 °F /  9.1 °C 29.43in /  996.5hPa WSW 4.9mph /  7.9km/h 10.0mph /  16.1km/h 29% 0.00in /  0mm meteobridge W/m2
15:18 83.1 °F /  28.4 °C 47.7 °F /  8.7 °C 29.44in /  996.8hPa SSW 2.0mph /  3.2km/h 3.0mph /  4.8km/h 29% 0.00in /  0mm meteobridge W/m2
15:24 82.8 °F /  28.2 °C 47.3 °F /  8.5 °C 29.44in /  996.8hPa North 4.9mph /  7.9km/h 5.0mph /  8km/h 29% 0.00in /  0mm meteobridge W/m2
15:30 82.4 °F /  28 °C 46.9 °F /  8.3 °C 29.44in /  996.8hPa NNW 0.9mph /  1.4km/h 4.0mph /  6.4km/h 29% 0.00in /  0mm meteobridge W/m2
15:36 80.8 °F /  27.1 °C 52.9 °F /  11.6 °C 29.44in /  996.8hPa South 17.9mph /  28.8km/h 22.0mph /  35.4km/h 38% 0.00in /  0mm meteobridge W/m2
15:42 75.4 °F /  24.1 °C 53.8 °F /  12.1 °C 29.44in /  996.8hPa SSW 6.0mph /  9.7km/h 16.0mph /  25.7km/h 47% 0.00in /  0mm meteobridge W/m2
15:48 74.1 °F /  23.4 °C 53.8 °F /  12.1 °C 29.44in /  996.8hPa South 11.0mph /  17.7km/h 13.0mph /  20.9km/h 49% 0.00in /  0mm meteobridge W/m2
15:54 73.8 °F /  23.2 °C 54.0 °F /  12.2 °C 29.44in /  996.8hPa South 10.1mph /  16.3km/h 15.0mph /  24.1km/h 50% 0.00in /  0mm meteobridge W/m2
16:00 73.8 °F /  23.2 °C 54.0 °F /  12.2 °C 29.44in /  996.8hPa South 14.1mph /  22.7km/h 18.0mph /  29km/h 50% 0.00in /  0mm meteobridge W/m2
16:06 73.0 °F /  22.8 °C 53.8 °F /  12.1 °C 29.44in /  996.8hPa SE 8.9mph /  14.3km/h 14.0mph /  22.5km/h 51% 0.00in /  0mm meteobridge W/m2
16:12 72.7 °F /  22.6 °C 54.0 °F /  12.2 °C 29.45in /  997.2hPa SSW 11.0mph /  17.7km/h 15.0mph /  24.1km/h 52% 0.00in /  0mm meteobridge W/m2
16:18 72.5 °F /  22.5 °C 53.4 °F /  11.9 °C 29.45in /  997.2hPa South 12.1mph /  19.5km/h 15.0mph /  24.1km/h 51% 0.00in /  0mm meteobridge W/m2
16:25 71.4 °F /  21.9 °C 52.3 °F /  11.3 °C 29.45in /  997.2hPa South 6.0mph /  9.7km/h 23.0mph /  37km/h 51% 0.00in /  0mm meteobridge W/m2
16:31 71.2 °F /  21.8 °C 52.7 °F /  11.5 °C 29.45in /  997.2hPa South 10.1mph /  16.3km/h 15.0mph /  24.1km/h 52% 0.00in /  0mm meteobridge W/m2
16:37 71.2 °F /  21.8 °C 52.2 °F /  11.2 °C 29.45in /  997.2hPa SSE 8.9mph /  14.3km/h 11.0mph /  17.7km/h 51% 0.00in /  0mm meteobridge W/m2
16:43 72.1 °F /  22.3 °C 52.0 °F /  11.1 °C 29.44in /  996.8hPa South 6.9mph /  11.1km/h 14.0mph /  22.5km/h 49% 0.00in /  0mm meteobridge W/m2
16:49 72.5 °F /  22.5 °C 51.1 °F /  10.6 °C 29.45in /  997.2hPa South 6.9mph /  11.1km/h 13.0mph /  20.9km/h 47% 0.00in /  0mm meteobridge W/m2
16:55 72.7 °F /  22.6 °C 51.8 °F /  11 °C 29.45in /  997.2hPa South 4.0mph /  6.4km/h 14.0mph /  22.5km/h 48% 0.00in /  0mm meteobridge W/m2
17:01 73.0 °F /  22.8 °C 51.6 °F /  10.9 °C 29.44in /  996.8hPa South 12.1mph /  19.5km/h 14.0mph /  22.5km/h 47% 0.00in /  0mm meteobridge W/m2
17:07 73.2 °F /  22.9 °C 51.8 °F /  11 °C 29.45in /  997.2hPa South 8.9mph /  14.3km/h 12.0mph /  19.3km/h 47% 0.00in /  0mm meteobridge W/m2
17:14 73.2 °F /  22.9 °C 51.8 °F /  11 °C 29.45in /  997.2hPa South 8.9mph /  14.3km/h 12.0mph /  19.3km/h 47% 0.00in /  0mm meteobridge W/m2
17:20 73.0 °F /  22.8 °C 51.6 °F /  10.9 °C 29.45in /  997.2hPa SSE 6.0mph /  9.7km/h 12.0mph /  19.3km/h 47% 0.00in /  0mm meteobridge W/m2
17:26 73.0 °F /  22.8 °C 51.6 °F /  10.9 °C 29.45in /  997.2hPa South 8.9mph /  14.3km/h 12.0mph /  19.3km/h 47% 0.00in /  0mm meteobridge W/m2
17:32 72.9 °F /  22.7 °C 52.0 °F /  11.1 °C 29.46in /  997.5hPa South 8.9mph /  14.3km/h 11.0mph /  17.7km/h 48% 0.00in /  0mm meteobridge W/m2
17:38 72.5 °F /  22.5 °C 52.3 °F /  11.3 °C 29.46in /  997.5hPa South 10.1mph /  16.3km/h 10.1mph /  16.3km/h 49% 0.00in /  0mm meteobridge W/m2
17:44 72.1 °F /  22.3 °C 52.5 °F /  11.4 °C 29.46in /  997.5hPa South 6.9mph /  11.1km/h 14.0mph /  22.5km/h 50% 0.00in /  0mm meteobridge W/m2
17:50 72.0 °F /  22.2 °C 52.9 °F /  11.6 °C 29.46in /  997.5hPa South 4.9mph /  7.9km/h 11.0mph /  17.7km/h 51% 0.00in /  0mm meteobridge W/m2
17:56 71.8 °F /  22.1 °C 52.7 °F /  11.5 °C 29.46in /  997.5hPa South 11.0mph /  17.7km/h 13.0mph /  20.9km/h 51% 0.00in /  0mm meteobridge W/m2
18:02 71.8 °F /  22.1 °C 52.7 °F /  11.5 °C 29.46in /  997.5hPa South 8.9mph /  14.3km/h 13.0mph /  20.9km/h 51% 0.00in /  0mm meteobridge W/m2
18:08 72.0 °F /  22.2 °C 52.9 °F /  11.6 °C 29.47in /  997.9hPa South 8.9mph /  14.3km/h 14.0mph /  22.5km/h 51% 0.00in /  0mm meteobridge W/m2
18:14 73.2 °F /  22.9 °C 53.4 °F /  11.9 °C 29.47in /  997.9hPa South 10.1mph /  16.3km/h 12.0mph /  19.3km/h 50% 0.00in /  0mm meteobridge W/m2
18:21 73.9 °F /  23.3 °C 53.6 °F /  12 °C 29.47in /  997.9hPa South 6.0mph /  9.7km/h 14.0mph /  22.5km/h 49% 0.00in /  0mm meteobridge W/m2
18:27 74.3 °F /  23.5 °C 54.0 °F /  12.2 °C 29.47in /  997.9hPa South 12.1mph /  19.5km/h 15.0mph /  24.1km/h 49% 0.00in /  0mm meteobridge W/m2
18:33 73.6 °F /  23.1 °C 53.2 °F /  11.8 °C 29.47in /  997.9hPa South 10.1mph /  16.3km/h 13.0mph /  20.9km/h 49% 0.00in /  0mm meteobridge W/m2
18:39 73.0 °F /  22.8 °C 53.8 °F /  12.1 °C 29.47in /  997.9hPa SSW 8.9mph /  14.3km/h 12.0mph /  19.3km/h 51% 0.00in /  0mm meteobridge W/m2
18:45 72.9 °F /  22.7 °C 53.6 °F /  12 °C 29.47in /  997.9hPa South 8.9mph /  14.3km/h 13.0mph /  20.9km/h 51% 0.00in /  0mm meteobridge W/m2
18:51 72.7 °F /  22.6 °C 54.0 °F /  12.2 °C 29.48in /  998.2hPa South 4.9mph /  7.9km/h 11.0mph /  17.7km/h 52% 0.00in /  0mm meteobridge W/m2
18:57 72.7 °F /  22.6 °C 54.0 °F /  12.2 °C 29.48in /  998.2hPa South 6.0mph /  9.7km/h 9.0mph /  14.5km/h 52% 0.00in /  0mm meteobridge W/m2
19:03 73.0 °F /  22.8 °C 53.8 °F /  12.1 °C 29.48in /  998.2hPa South 13.0mph /  20.9km/h 15.0mph /  24.1km/h 51% 0.00in /  0mm meteobridge W/m2
19:09 72.9 °F /  22.7 °C 54.1 °F /  12.3 °C 29.49in /  998.5hPa SSE 4.0mph /  6.4km/h 11.0mph /  17.7km/h 52% 0.00in /  0mm meteobridge W/m2
19:16 72.7 °F /  22.6 °C 54.0 °F /  12.2 °C 29.49in /  998.5hPa SSE 8.9mph /  14.3km/h 9.0mph /  14.5km/h 52% 0.00in /  0mm meteobridge W/m2
19:23 72.7 °F /  22.6 °C 54.0 °F /  12.2 °C 29.49in /  998.5hPa SSE 8.9mph /  14.3km/h -999.0mph /  -1607.7km/h 52% 0.00in /  0mm meteobridge W/m2
19:29 72.7 °F /  22.6 °C 54.0 °F /  12.2 °C 29.49in /  998.5hPa North -999.9mph /  -1609.1km/h -999.0mph /  -1607.7km/h 52% 0.00in /  0mm meteobridge W/m2
19:36 72.7 °F /  22.6 °C 54.0 °F /  12.2 °C 29.50in /  998.9hPa North -999.9mph /  -1609.1km/h -999.0mph /  -1607.7km/h 52% 0.00in /  0mm meteobridge W/m2
19:43 72.7 °F /  22.6 °C 54.0 °F /  12.2 °C 29.50in /  998.9hPa North -999.9mph /  -1609.1km/h -999.0mph /  -1607.7km/h 52% 0.00in /  0mm meteobridge W/m2
Regenstein, Windhoek, Namibia
Compliments of Weather Underground - 2.5 mb